sensor_id;sensor_type;location;lat;lon;timestamp;pressure;altitude;pressure_sealevel;temperature;humidity
66689;BME280;53587;59.318;18.084;2023-07-22T00:00:01;100556.97;;;23.51;57.86
66689;BME280;53587;59.318;18.084;2023-07-22T00:02:26;100550.56;;;23.51;57.83
66689;BME280;53587;59.318;18.084;2023-07-22T00:04:51;100555.34;;;23.50;58.20
66689;BME280;53587;59.318;18.084;2023-07-22T00:07:17;100558.94;;;23.51;57.44
66689;BME280;53587;59.318;18.084;2023-07-22T00:09:42;100562.53;;;23.51;58.56
66689;BME280;53587;59.318;18.084;2023-07-22T00:12:08;100553.34;;;23.51;57.29
66689;BME280;53587;59.318;18.084;2023-07-22T00:14:35;100548.63;;;23.51;57.29
66689;BME280;53587;59.318;18.084;2023-07-22T00:17:01;100552.56;;;23.50;57.36
66689;BME280;53587;59.318;18.084;2023-07-22T00:19:26;100556.16;;;23.51;57.22
66689;BME280;53587;59.318;18.084;2023-07-22T00:21:51;100552.22;;;23.52;57.92
66689;BME280;53587;59.318;18.084;2023-07-22T00:24:17;100549.78;;;23.50;57.76
66689;BME280;53587;59.318;18.084;2023-07-22T00:26:42;100562.53;;;23.51;57.30
66689;BME280;53587;59.318;18.084;2023-07-22T00:29:07;100556.97;;;23.51;57.94
66689;BME280;53587;59.318;18.084;2023-07-22T00:31:33;100560.91;;;23.50;57.35
66689;BME280;53587;59.318;18.084;2023-07-22T00:33:58;100556.97;;;23.51;57.34
66689;BME280;53587;59.318;18.084;2023-07-22T00:36:23;100556.16;;;23.51;57.26
66689;BME280;53587;59.318;18.084;2023-07-22T00:38:49;100560.56;;;23.52;58.18
66689;BME280;53587;59.318;18.084;2023-07-22T00:41:15;100553.34;;;23.51;57.53
66689;BME280;53587;59.318;18.084;2023-07-22T00:43:40;100555.34;;;23.50;57.95
66689;BME280;53587;59.318;18.084;2023-07-22T00:46:05;100559.75;;;23.51;57.22
66689;BME280;53587;59.318;18.084;2023-07-22T00:48:30;100555.34;;;23.50;56.92
66689;BME280;53587;59.318;18.084;2023-07-22T00:50:56;100552.56;;;23.50;57.05
66689;BME280;53587;59.318;18.084;2023-07-22T00:53:22;100556.16;;;23.51;57.34
66689;BME280;53587;59.318;18.084;2023-07-22T00:55:47;100551.41;;;23.51;57.64
66689;BME280;53587;59.318;18.084;2023-07-22T00:58:13;100550.13;;;23.48;57.99
66689;BME280;53587;59.318;18.084;2023-07-22T01:00:38;100552.56;;;23.50;57.50
66689;BME280;53587;59.318;18.084;2023-07-22T01:03:03;100556.97;;;23.51;57.05
66689;BME280;53587;59.318;18.084;2023-07-22T01:05:28;100548.63;;;23.51;57.11
66689;BME280;53587;59.318;18.084;2023-07-22T01:07:54;100552.56;;;23.50;57.74
66689;BME280;53587;59.318;18.084;2023-07-22T01:10:20;100551.41;;;23.51;57.46
66689;BME280;53587;59.318;18.084;2023-07-22T01:12:46;100551.41;;;23.51;56.62
66689;BME280;53587;59.318;18.084;2023-07-22T01:15:11;100551.41;;;23.51;57.87
66689;BME280;53587;59.318;18.084;2023-07-22T01:17:36;100567.25;;;23.51;57.25
66689;BME280;53587;59.318;18.084;2023-07-22T01:20:02;100557.78;;;23.52;57.10
66689;BME280;53587;59.318;18.084;2023-07-22T01:22:28;100562.53;;;23.51;57.21
66689;BME280;53587;59.318;18.084;2023-07-22T01:24:54;100566.47;;;23.50;56.74
66689;BME280;53587;59.318;18.084;2023-07-22T01:27:19;100568.09;;;23.51;57.14
66689;BME280;53587;59.318;18.084;2023-07-22T01:29:44;100568.91;;;23.52;57.26
66689;BME280;53587;59.318;18.084;2023-07-22T01:32:10;100568.09;;;23.51;57.63
66689;BME280;53587;59.318;18.084;2023-07-22T01:34:35;100567.25;;;23.51;56.52
66689;BME280;53587;59.318;18.084;2023-07-22T01:37:00;100567.25;;;23.51;56.91
66689;BME280;53587;59.318;18.084;2023-07-22T01:39:26;100561.72;;;23.51;56.96
66689;BME280;53587;59.318;18.084;2023-07-22T01:41:52;100558.94;;;23.51;56.79
66689;BME280;53587;59.318;18.084;2023-07-22T01:44:17;100558.94;;;23.51;56.94
66689;BME280;53587;59.318;18.084;2023-07-22T01:46:42;100557.31;;;23.50;57.18
66689;BME280;53587;59.318;18.084;2023-07-22T01:49:10;100566.47;;;23.50;56.74
66689;BME280;53587;59.318;18.084;2023-07-22T01:51:35;100558.13;;;23.50;56.57
66689;BME280;53587;59.318;18.084;2023-07-22T01:54:03;100560.91;;;23.50;56.91
66689;BME280;53587;59.318;18.084;2023-07-22T01:56:28;100560.91;;;23.50;57.11
66689;BME280;53587;59.318;18.084;2023-07-22T01:58:53;100554.53;;;23.50;57.28
66689;BME280;53587;59.318;18.084;2023-07-22T02:01:18;100549.78;;;23.50;56.44
66689;BME280;53587;59.318;18.084;2023-07-22T02:03:44;100570.03;;;23.51;56.64
66689;BME280;53587;59.318;18.084;2023-07-22T02:06:09;100565.66;;;23.50;57.13
66689;BME280;53587;59.318;18.084;2023-07-22T02:08:34;100572.03;;;23.50;56.48
66689;BME280;53587;59.318;18.084;2023-07-22T02:11:04;100568.44;;;23.50;56.91
66689;BME280;53587;59.318;18.084;2023-07-22T02:13:30;100571.22;;;23.50;57.15
66689;BME280;53587;59.318;18.084;2023-07-22T02:15:55;100572.03;;;23.50;56.44
66689;BME280;53587;59.318;18.084;2023-07-22T02:18:20;100572.03;;;23.50;55.90
66689;BME280;53587;59.318;18.084;2023-07-22T02:20:45;100574.00;;;23.50;56.36
66689;BME280;53587;59.318;18.084;2023-07-22T02:23:10;100577.59;;;23.50;56.90
66689;BME280;53587;59.318;18.084;2023-07-22T02:25:36;100575.94;;;23.49;56.24
66689;BME280;53587;59.318;18.084;2023-07-22T02:28:01;100575.94;;;23.49;56.41
66689;BME280;53587;59.318;18.084;2023-07-22T02:30:26;100574.00;;;23.50;56.45
66689;BME280;53587;59.318;18.084;2023-07-22T02:32:51;100571.22;;;23.50;55.88
66689;BME280;53587;59.318;18.084;2023-07-22T02:35:17;100577.59;;;23.50;55.93
66689;BME280;53587;59.318;18.084;2023-07-22T02:37:42;100577.59;;;23.50;56.08
66689;BME280;53587;59.318;18.084;2023-07-22T02:40:07;100577.59;;;23.50;56.21
66689;BME280;53587;59.318;18.084;2023-07-22T02:42:33;100574.81;;;23.50;55.64
66689;BME280;53587;59.318;18.084;2023-07-22T02:44:58;100574.00;;;23.50;55.59
66689;BME280;53587;59.318;18.084;2023-07-22T02:47:23;100567.59;;;23.49;55.78
66689;BME280;53587;59.318;18.084;2023-07-22T02:49:49;100568.75;;;23.48;56.61
66689;BME280;53587;59.318;18.084;2023-07-22T02:52:14;100577.94;;;23.48;55.74
66689;BME280;53587;59.318;18.084;2023-07-22T02:54:40;100574.31;;;23.48;56.66
66689;BME280;53587;59.318;18.084;2023-07-22T02:57:06;100573.50;;;23.47;56.35
66689;BME280;53587;59.318;18.084;2023-07-22T02:59:32;100571.06;;;23.46;56.01
66689;BME280;53587;59.318;18.084;2023-07-22T03:01:58;100572.69;;;23.47;55.49
66689;BME280;53587;59.318;18.084;2023-07-22T03:04:23;100570.38;;;23.49;55.97
66689;BME280;53587;59.318;18.084;2023-07-22T03:06:48;100566.47;;;23.50;55.91
66689;BME280;53587;59.318;18.084;2023-07-22T03:09:13;100575.59;;;23.51;55.59
66689;BME280;53587;59.318;18.084;2023-07-22T03:11:39;100567.59;;;23.49;55.49
66689;BME280;53587;59.318;18.084;2023-07-22T03:14:04;100571.22;;;23.50;56.61
66689;BME280;53587;59.318;18.084;2023-07-22T03:16:29;100568.75;;;23.48;55.52
66689;BME280;53587;59.318;18.084;2023-07-22T03:18:54;100564.03;;;23.48;55.17
66689;BME280;53587;59.318;18.084;2023-07-22T03:21:19;100574.31;;;23.48;56.01
66689;BME280;53587;59.318;18.084;2023-07-22T03:23:45;100574.31;;;23.48;56.47
66689;BME280;53587;59.318;18.084;2023-07-22T03:26:10;100566.81;;;23.48;55.47
66689;BME280;53587;59.318;18.084;2023-07-22T03:28:35;100567.13;;;23.47;55.06
66689;BME280;53587;59.318;18.084;2023-07-22T03:31:00;100572.69;;;23.47;55.53
66689;BME280;53587;59.318;18.084;2023-07-22T03:33:25;100564.66;;;23.45;56.33
66689;BME280;53587;59.318;18.084;2023-07-22T03:35:51;100564.66;;;23.45;55.51
66689;BME280;53587;59.318;18.084;2023-07-22T03:38:16;100571.06;;;23.46;56.22
66689;BME280;53587;59.318;18.084;2023-07-22T03:40:41;100575.16;;;23.48;55.42
66689;BME280;53587;59.318;18.084;2023-07-22T03:43:07;100577.09;;;23.48;55.15
66689;BME280;53587;59.318;18.084;2023-07-22T03:45:32;100581.50;;;23.49;55.37
66689;BME280;53587;59.318;18.084;2023-07-22T03:47:58;100577.09;;;23.48;55.94
66689;BME280;53587;59.318;18.084;2023-07-22T03:50:24;100579.88;;;23.48;55.92
66689;BME280;53587;59.318;18.084;2023-07-22T03:52:49;100576.78;;;23.50;56.37
66689;BME280;53587;59.318;18.084;2023-07-22T03:55:14;100580.38;;;23.50;56.11
66689;BME280;53587;59.318;18.084;2023-07-22T03:57:39;100549.78;;;23.50;54.93
66689;BME280;53587;59.318;18.084;2023-07-22T04:00:05;100573.66;;;23.51;55.84
66689;BME280;53587;59.318;18.084;2023-07-22T04:02:30;100568.09;;;23.51;55.26
66689;BME280;53587;59.318;18.084;2023-07-22T04:04:59;100575.31;;;23.52;55.46
66689;BME280;53587;59.318;18.084;2023-07-22T04:07:24;100564.19;;;23.52;55.50
66689;BME280;53587;59.318;18.084;2023-07-22T04:09:49;100555.84;;;23.52;55.17
66689;BME280;53587;59.318;18.084;2023-07-22T04:12:14;100561.41;;;23.52;54.92
66689;BME280;53587;59.318;18.084;2023-07-22T04:14:40;100557.78;;;23.52;55.19
66689;BME280;53587;59.318;18.084;2023-07-22T04:17:05;100560.22;;;23.53;54.75
66689;BME280;53587;59.318;18.084;2023-07-22T04:19:30;100569.41;;;23.54;55.30
66689;BME280;53587;59.318;18.084;2023-07-22T04:21:56;100557.44;;;23.53;55.90
66689;BME280;53587;59.318;18.084;2023-07-22T04:24:21;100562.19;;;23.53;54.81
66689;BME280;53587;59.318;18.084;2023-07-22T04:26:46;100562.19;;;23.53;55.78
66689;BME280;53587;59.318;18.084;2023-07-22T04:29:12;100570.53;;;23.53;55.51
66689;BME280;53587;59.318;18.084;2023-07-22T04:31:37;100569.75;;;23.52;56.02
66689;BME280;53587;59.318;18.084;2023-07-22T04:34:03;100572.53;;;23.52;55.92
66689;BME280;53587;59.318;18.084;2023-07-22T04:36:28;100564.19;;;23.52;55.67
66689;BME280;53587;59.318;18.084;2023-07-22T04:38:53;100572.19;;;23.54;54.98
66689;BME280;53587;59.318;18.084;2023-07-22T04:41:18;100576.91;;;23.53;55.42
66689;BME280;53587;59.318;18.084;2023-07-22T04:43:44;100568.91;;;23.52;55.76
66689;BME280;53587;59.318;18.084;2023-07-22T04:46:09;100570.53;;;23.53;55.02
66689;BME280;53587;59.318;18.084;2023-07-22T04:48:34;100569.75;;;23.52;55.85
66689;BME280;53587;59.318;18.084;2023-07-22T04:51:02;100580.84;;;23.52;55.13
66689;BME280;53587;59.318;18.084;2023-07-22T04:53:27;100576.91;;;23.53;55.69
66689;BME280;53587;59.318;18.084;2023-07-22T04:55:52;100569.75;;;23.52;55.18
66689;BME280;53587;59.318;18.084;2023-07-22T04:58:17;100573.31;;;23.53;54.61
66689;BME280;53587;59.318;18.084;2023-07-22T05:00:43;100568.09;;;23.51;55.06
66689;BME280;53587;59.318;18.084;2023-07-22T05:03:08;100575.31;;;23.52;55.67
66689;BME280;53587;59.318;18.084;2023-07-22T05:05:33;100581.66;;;23.53;55.12
66689;BME280;53587;59.318;18.084;2023-07-22T05:07:58;100576.09;;;23.53;55.64
66689;BME280;53587;59.318;18.084;2023-07-22T05:10:24;100572.53;;;23.52;55.22
66689;BME280;53587;59.318;18.084;2023-07-22T05:12:49;100575.31;;;23.52;55.57
66689;BME280;53587;59.318;18.084;2023-07-22T05:15:14;100575.31;;;23.52;55.15
66689;BME280;53587;59.318;18.084;2023-07-22T05:17:40;100568.09;;;23.51;55.80
66689;BME280;53587;59.318;18.084;2023-07-22T05:20:05;100572.81;;;23.51;55.91
66689;BME280;53587;59.318;18.084;2023-07-22T05:22:31;100568.09;;;23.51;55.59
66689;BME280;53587;59.318;18.084;2023-07-22T05:24:56;100573.66;;;23.51;55.57
66689;BME280;53587;59.318;18.084;2023-07-22T05:27:22;100568.09;;;23.51;55.50
66689;BME280;53587;59.318;18.084;2023-07-22T05:29:47;100568.09;;;23.51;56.10
66689;BME280;53587;59.318;18.084;2023-07-22T05:32:12;100571.34;;;23.53;55.29
66689;BME280;53587;59.318;18.084;2023-07-22T05:34:38;100572.53;;;23.52;55.22
66689;BME280;53587;59.318;18.084;2023-07-22T05:37:03;100560.22;;;23.53;55.61
66689;BME280;53587;59.318;18.084;2023-07-22T05:39:28;100568.56;;;23.53;56.36
66689;BME280;53587;59.318;18.084;2023-07-22T05:41:53;100565.78;;;23.53;56.15
66689;BME280;53587;59.318;18.084;2023-07-22T05:44:19;100571.34;;;23.53;54.98
66689;BME280;53587;59.318;18.084;2023-07-22T05:46:44;100572.19;;;23.54;55.78
66689;BME280;53587;59.318;18.084;2023-07-22T05:49:09;100574.13;;;23.53;55.84
66689;BME280;53587;59.318;18.084;2023-07-22T05:51:35;100563.50;;;23.55;55.59
66689;BME280;53587;59.318;18.084;2023-07-22T05:54:01;100565.94;;;23.57;55.03
66689;BME280;53587;59.318;18.084;2023-07-22T05:56:26;100565.13;;;23.56;55.48
66689;BME280;53587;59.318;18.084;2023-07-22T05:58:51;100568.72;;;23.57;55.12
66689;BME280;53587;59.318;18.084;2023-07-22T06:01:16;100566.78;;;23.57;55.07
66689;BME280;53587;59.318;18.084;2023-07-22T06:03:42;100565.13;;;23.56;54.89
66689;BME280;53587;59.318;18.084;2023-07-22T06:06:10;100565.13;;;23.56;55.41
66689;BME280;53587;59.318;18.084;2023-07-22T06:08:35;100565.94;;;23.57;55.73
66689;BME280;53587;59.318;18.084;2023-07-22T06:11:00;100558.75;;;23.56;54.68
66689;BME280;53587;59.318;18.084;2023-07-22T06:13:25;100561.22;;;23.57;55.47
66689;BME280;53587;59.318;18.084;2023-07-22T06:15:51;100562.34;;;23.56;55.18
66689;BME280;53587;59.318;18.084;2023-07-22T06:18:17;100561.22;;;23.57;55.27
66689;BME280;53587;59.318;18.084;2023-07-22T06:20:42;100563.50;;;23.55;55.52
66689;BME280;53587;59.318;18.084;2023-07-22T06:23:07;100559.22;;;23.58;55.63
66689;BME280;53587;59.318;18.084;2023-07-22T06:25:32;100555.66;;;23.57;54.82
66689;BME280;53587;59.318;18.084;2023-07-22T06:27:57;100562.84;;;23.58;54.86
66689;BME280;53587;59.318;18.084;2023-07-22T06:30:23;100562.00;;;23.58;55.01
66689;BME280;53587;59.318;18.084;2023-07-22T06:32:48;100558.44;;;23.57;54.97
66689;BME280;53587;59.318;18.084;2023-07-22T06:35:13;100556.44;;;23.58;54.74
66689;BME280;53587;59.318;18.084;2023-07-22T06:37:38;100550.88;;;23.58;54.92
66689;BME280;53587;59.318;18.084;2023-07-22T06:40:05;100554.00;;;23.56;55.26
66689;BME280;53587;59.318;18.084;2023-07-22T06:42:30;100559.56;;;23.56;54.94
66689;BME280;53587;59.318;18.084;2023-07-22T06:44:55;100555.66;;;23.57;55.04
66689;BME280;53587;59.318;18.084;2023-07-22T06:47:21;100566.78;;;23.57;54.76
66689;BME280;53587;59.318;18.084;2023-07-22T06:49:46;100563.16;;;23.57;54.51
66689;BME280;53587;59.318;18.084;2023-07-22T06:52:11;100555.66;;;23.57;54.99
66689;BME280;53587;59.318;18.084;2023-07-22T06:54:37;100553.19;;;23.56;55.06
66689;BME280;53587;59.318;18.084;2023-07-22T06:57:02;100553.19;;;23.56;54.14
66689;BME280;53587;59.318;18.084;2023-07-22T06:59:27;100561.84;;;23.54;55.28
66689;BME280;53587;59.318;18.084;2023-07-22T07:01:53;100561.53;;;23.56;55.25
66689;BME280;53587;59.318;18.084;2023-07-22T07:04:18;100563.50;;;23.55;55.17
66689;BME280;53587;59.318;18.084;2023-07-22T07:06:43;100552.38;;;23.55;55.00
66689;BME280;53587;59.318;18.084;2023-07-22T07:09:10;100559.56;;;23.56;55.32
66689;BME280;53587;59.318;18.084;2023-07-22T07:11:36;100557.13;;;23.55;54.27
66689;BME280;53587;59.318;18.084;2023-07-22T07:14:01;100558.75;;;23.56;55.21
66689;BME280;53587;59.318;18.084;2023-07-22T07:16:27;100563.50;;;23.55;54.17
66689;BME280;53587;59.318;18.084;2023-07-22T07:18:53;100551.72;;;23.58;54.31
66689;BME280;53587;59.318;18.084;2023-07-22T07:21:19;100562.34;;;23.56;55.04
66689;BME280;53587;59.318;18.084;2023-07-22T07:23:45;100558.75;;;23.56;55.01
66689;BME280;53587;59.318;18.084;2023-07-22T07:26:10;100565.13;;;23.56;54.30
66689;BME280;53587;59.318;18.084;2023-07-22T07:28:35;100562.34;;;23.56;54.44
66689;BME280;53587;59.318;18.084;2023-07-22T07:31:00;100562.34;;;23.56;54.21
66689;BME280;53587;59.318;18.084;2023-07-22T07:33:26;100567.91;;;23.56;54.27
66689;BME280;53587;59.318;18.084;2023-07-22T07:35:51;100565.78;;;23.53;55.34
66689;BME280;53587;59.318;18.084;2023-07-22T07:38:16;100555.16;;;23.55;55.12
66689;BME280;53587;59.318;18.084;2023-07-22T07:40:41;100561.84;;;23.54;54.67
66689;BME280;53587;59.318;18.084;2023-07-22T07:43:06;100556.28;;;23.54;54.44
66689;BME280;53587;59.318;18.084;2023-07-22T07:45:32;100559.06;;;23.54;54.11
66689;BME280;53587;59.318;18.084;2023-07-22T07:47:57;100561.06;;;23.54;54.02
66689;BME280;53587;59.318;18.084;2023-07-22T07:50:22;100560.22;;;23.53;55.06
66689;BME280;53587;59.318;18.084;2023-07-22T07:52:47;100563.00;;;23.53;54.65
66689;BME280;53587;59.318;18.084;2023-07-22T07:55:13;100566.63;;;23.54;54.29
66689;BME280;53587;59.318;18.084;2023-07-22T07:57:38;100563.00;;;23.53;55.01
66689;BME280;53587;59.318;18.084;2023-07-22T08:00:03;100572.19;;;23.54;55.05
66689;BME280;53587;59.318;18.084;2023-07-22T08:02:29;100571.34;;;23.53;54.22
66689;BME280;53587;59.318;18.084;2023-07-22T08:04:55;100583.63;;;23.52;54.30
66689;BME280;53587;59.318;18.084;2023-07-22T08:07:20;100578.53;;;23.54;54.76
66689;BME280;53587;59.318;18.084;2023-07-22T08:09:48;100583.31;;;23.54;54.40
66689;BME280;53587;59.318;18.084;2023-07-22T08:12:14;100590.81;;;23.53;53.58
66689;BME280;53587;59.318;18.084;2023-07-22T08:14:39;100589.66;;;23.54;54.35
66689;BME280;53587;59.318;18.084;2023-07-22T08:17:05;100584.09;;;23.54;54.03
66689;BME280;53587;59.318;18.084;2023-07-22T08:19:30;100586.09;;;23.54;53.67
66689;BME280;53587;59.318;18.084;2023-07-22T08:21:55;100587.22;;;23.53;53.89
66689;BME280;53587;59.318;18.084;2023-07-22T08:24:20;100587.72;;;23.55;53.43
66689;BME280;53587;59.318;18.084;2023-07-22T08:26:46;100591.31;;;23.55;53.72
66689;BME280;53587;59.318;18.084;2023-07-22T08:29:11;100594.44;;;23.54;52.98
66689;BME280;53587;59.318;18.084;2023-07-22T08:31:36;100589.66;;;23.54;52.79
66689;BME280;53587;59.318;18.084;2023-07-22T08:34:01;100584.09;;;23.54;52.46
66689;BME280;53587;59.318;18.084;2023-07-22T08:36:26;100585.25;;;23.53;52.26
66689;BME280;53587;59.318;18.084;2023-07-22T08:38:52;100586.88;;;23.54;52.44
66689;BME280;53587;59.318;18.084;2023-07-22T08:41:17;100592.44;;;23.54;52.60
66689;BME280;53587;59.318;18.084;2023-07-22T08:43:43;100585.75;;;23.55;52.06
66689;BME280;53587;59.318;18.084;2023-07-22T08:46:10;100576.44;;;23.51;51.82
66689;BME280;53587;59.318;18.084;2023-07-22T08:48:36;100590.81;;;23.53;52.46
66689;BME280;53587;59.318;18.084;2023-07-22T08:51:03;100587.22;;;23.53;52.28
66689;BME280;53587;59.318;18.084;2023-07-22T08:53:29;100585.25;;;23.53;52.04
66689;BME280;53587;59.318;18.084;2023-07-22T08:55:55;100581.31;;;23.54;52.18
66689;BME280;53587;59.318;18.084;2023-07-22T08:58:20;100580.84;;;23.52;51.27
66689;BME280;53587;59.318;18.084;2023-07-22T09:00:46;100585.25;;;23.53;52.27
66689;BME280;53587;59.318;18.084;2023-07-22T09:03:13;100578.88;;;23.53;51.66
66689;BME280;53587;59.318;18.084;2023-07-22T09:05:38;100574.13;;;23.53;51.51
66689;BME280;53587;59.318;18.084;2023-07-22T09:08:06;100585.25;;;23.53;50.92
66689;BME280;53587;59.318;18.084;2023-07-22T09:10:31;100590.00;;;23.53;51.13
66689;BME280;53587;59.318;18.084;2023-07-22T09:12:57;100584.78;;;23.51;50.88
66689;BME280;53587;59.318;18.084;2023-07-22T09:15:23;100585.94;;;23.50;51.61
66689;BME280;53587;59.318;18.084;2023-07-22T09:17:49;100593.59;;;23.53;50.75
66689;BME280;53587;59.318;18.084;2023-07-22T09:20:15;100586.41;;;23.52;50.92
66689;BME280;53587;59.318;18.084;2023-07-22T09:22:47;100588.88;;;23.54;51.24
66689;BME280;53587;59.318;18.084;2023-07-22T09:25:13;100595.22;;;23.54;51.42
66689;BME280;53587;59.318;18.084;2023-07-22T09:27:42;100603.91;;;23.53;51.69
66689;BME280;53587;59.318;18.084;2023-07-22T09:30:26;100591.97;;;23.52;50.72
66689;BME280;53587;59.318;18.084;2023-07-22T09:32:52;100592.78;;;23.53;50.72
66689;BME280;53587;59.318;18.084;2023-07-22T09:35:18;100592.78;;;23.53;51.49
66689;BME280;53587;59.318;18.084;2023-07-22T09:37:44;100601.47;;;23.51;51.75
66689;BME280;53587;59.318;18.084;2023-07-22T09:40:30;100598.69;;;23.51;51.66
66689;BME280;53587;59.318;18.084;2023-07-22T09:42:56;100602.28;;;23.52;51.42
66689;BME280;53587;59.318;18.084;2023-07-22T09:45:23;100604.25;;;23.51;50.76
66689;BME280;53587;59.318;18.084;2023-07-22T09:47:49;100601.47;;;23.51;50.83
66689;BME280;53587;59.318;18.084;2023-07-22T09:50:18;100602.28;;;23.52;51.44
66689;BME280;53587;59.318;18.084;2023-07-22T09:55:18;100601.81;;;23.50;51.62
66689;BME280;53587;59.318;18.084;2023-07-22T09:57:45;100600.16;;;23.48;50.84
66689;BME280;53587;59.318;18.084;2023-07-22T10:00:12;100602.63;;;23.50;50.95
66689;BME280;53587;59.318;18.084;2023-07-22T10:02:39;100590.69;;;23.50;51.03
66689;BME280;53587;59.318;18.084;2023-07-22T10:05:05;100593.47;;;23.50;50.74
66689;BME280;53587;59.318;18.084;2023-07-22T10:07:33;100598.19;;;23.49;50.44
66689;BME280;53587;59.318;18.084;2023-07-22T10:09:58;100604.59;;;23.50;51.09
66689;BME280;53587;59.318;18.084;2023-07-22T10:12:24;100597.06;;;23.50;51.41
66689;BME280;53587;59.318;18.084;2023-07-22T10:14:49;100597.06;;;23.50;50.74
66689;BME280;53587;59.318;18.084;2023-07-22T10:17:15;100598.19;;;23.49;51.09
66689;BME280;53587;59.318;18.084;2023-07-22T10:19:41;100602.13;;;23.48;50.96
66689;BME280;53587;59.318;18.084;2023-07-22T10:22:07;100594.91;;;23.47;51.50
66689;BME280;53587;59.318;18.084;2023-07-22T10:24:35;100591.00;;;23.48;51.03
66689;BME280;53587;59.318;18.084;2023-07-22T10:27:01;100591.84;;;23.48;50.71
66689;BME280;53587;59.318;18.084;2023-07-22T10:29:26;100596.56;;;23.48;50.54
66689;BME280;53587;59.318;18.084;2023-07-22T10:31:53;100583.50;;;23.48;50.40
66689;BME280;53587;59.318;18.084;2023-07-22T10:34:23;100589.34;;;23.47;50.30
66689;BME280;53587;59.318;18.084;2023-07-22T10:36:48;100589.84;;;23.49;50.63
66689;BME280;53587;59.318;18.084;2023-07-22T10:39:24;100587.06;;;23.49;51.20
66689;BME280;53587;59.318;18.084;2023-07-22T10:41:50;100582.34;;;23.50;51.20
66689;BME280;53587;59.318;18.084;2023-07-22T10:44:22;100595.91;;;23.51;50.21
66689;BME280;53587;59.318;18.084;2023-07-22T10:46:56;100590.34;;;23.51;50.96
66689;BME280;53587;59.318;18.084;2023-07-22T10:49:21;100587.06;;;23.49;50.77
66689;BME280;53587;59.318;18.084;2023-07-22T10:51:47;100592.63;;;23.49;50.36
66689;BME280;53587;59.318;18.084;2023-07-22T10:54:13;100586.56;;;23.47;50.40
66689;BME280;53587;59.318;18.084;2023-07-22T10:56:40;100585.44;;;23.48;50.79
66689;BME280;53587;59.318;18.084;2023-07-22T10:59:06;100587.06;;;23.49;49.93
66689;BME280;53587;59.318;18.084;2023-07-22T11:01:35;100583.50;;;23.48;49.98
66689;BME280;53587;59.318;18.084;2023-07-22T11:06:32;100579.88;;;23.48;50.26
66689;BME280;53587;59.318;18.084;2023-07-22T11:08:57;100571.53;;;23.48;49.92
66689;BME280;53587;59.318;18.084;2023-07-22T11:14:34;100571.53;;;23.48;50.98
66689;BME280;53587;59.318;18.084;2023-07-22T11:16:52;100580.72;;;23.48;50.91
66689;BME280;53587;59.318;18.084;2023-07-22T11:19:18;100574.31;;;23.48;50.45
66689;BME280;53587;59.318;18.084;2023-07-22T11:21:44;100571.53;;;23.48;50.63
66689;BME280;53587;59.318;18.084;2023-07-22T11:24:10;100574.31;;;23.48;50.87
66689;BME280;53587;59.318;18.084;2023-07-22T11:26:35;100568.75;;;23.48;50.78
66689;BME280;53587;59.318;18.084;2023-07-22T11:29:02;100578.72;;;23.49;49.99
66689;BME280;53587;59.318;18.084;2023-07-22T11:31:31;100567.59;;;23.49;49.92
66689;BME280;53587;59.318;18.084;2023-07-22T11:33:57;100569.59;;;23.48;50.25
66689;BME280;53587;59.318;18.084;2023-07-22T11:36:22;100573.16;;;23.49;50.78
66689;BME280;53587;59.318;18.084;2023-07-22T11:38:48;100575.94;;;23.49;50.39
66689;BME280;53587;59.318;18.084;2023-07-22T11:41:13;100578.72;;;23.49;50.77
66689;BME280;53587;59.318;18.084;2023-07-22T11:43:39;100577.59;;;23.50;50.54
66689;BME280;53587;59.318;18.084;2023-07-22T11:46:05;100579.22;;;23.51;50.58
66689;BME280;53587;59.318;18.084;2023-07-22T11:48:30;100569.25;;;23.50;50.84
66689;BME280;53587;59.318;18.084;2023-07-22T11:50:59;100577.59;;;23.50;51.17
66689;BME280;53587;59.318;18.084;2023-07-22T11:53:26;100579.56;;;23.50;50.80
66689;BME280;53587;59.318;18.084;2023-07-22T11:55:52;100580.38;;;23.50;50.29
66689;BME280;53587;59.318;18.084;2023-07-22T11:58:24;100580.38;;;23.50;50.10
66689;BME280;53587;59.318;18.084;2023-07-22T12:01:01;100566.47;;;23.50;50.06
66689;BME280;53587;59.318;18.084;2023-07-22T12:03:30;100566.81;;;23.48;50.98
66689;BME280;53587;59.318;18.084;2023-07-22T12:05:55;100566.47;;;23.50;50.30
66689;BME280;53587;59.318;18.084;2023-07-22T12:08:20;100565.66;;;23.50;50.92
66689;BME280;53587;59.318;18.084;2023-07-22T12:10:55;100560.09;;;23.50;50.56
66689;BME280;53587;59.318;18.084;2023-07-22T12:13:20;100556.16;;;23.51;50.03
66689;BME280;53587;59.318;18.084;2023-07-22T12:15:58;100552.56;;;23.50;50.78
66689;BME280;53587;59.318;18.084;2023-07-22T12:18:23;100550.56;;;23.51;50.97
66689;BME280;53587;59.318;18.084;2023-07-22T12:20:49;100562.53;;;23.51;50.35
66689;BME280;53587;59.318;18.084;2023-07-22T12:23:14;100556.97;;;23.51;50.55
66689;BME280;53587;59.318;18.084;2023-07-22T12:25:40;100550.56;;;23.51;50.99
66689;BME280;53587;59.318;18.084;2023-07-22T12:28:05;100554.53;;;23.50;51.09
66689;BME280;53587;59.318;18.084;2023-07-22T12:30:31;100547.81;;;23.51;50.78
66689;BME280;53587;59.318;18.084;2023-07-22T12:32:56;100555.00;;;23.52;50.34
66689;BME280;53587;59.318;18.084;2023-07-22T12:35:22;100551.75;;;23.50;49.96
66689;BME280;53587;59.318;18.084;2023-07-22T12:37:47;100541.09;;;23.52;50.45
66689;BME280;53587;59.318;18.084;2023-07-22T12:40:12;100544.22;;;23.50;49.90